Bethel, ME

1:54 AM EDT on June 03, 2015 (GMT -0400)
Androscoggin River | | Change Station
CLOSE
Current Station
Personal Weather Station
Location: Bethel, ME
Elevation: 663 ft
Nearby Weather Stations

Elev 663 ft 44.42 °N, 70.83 °W | Updated 13 minutes ago

Overcast
Overcast
45.0 °F
Feels Like 45 °F
N
0.0
Wind Variable Wind from NE
Gusts 0.0 mph

Today
High -- | Low -- °F
--% Chance of Precip.
Yesterday
High -- | Low -- °F
Precip. -- in
5:01 AM 8:21 PM
Full, 100% visible
Pressure 30.16 in
Visibility 10.0 miles
Clouds Overcast 3100 ft
Windchill 45 °F
Dew Point 45 °F
Humidity 98%
Rainfall 0.03 in
Snow Depth Not available.
UV 0 out of 12
Pollen .90 out of 12
Air Quality Not available.
Flu Activity Regional
SPECI KBML 030506Z AUTO 00000KT 10SM OVC031 09/07 A3016 RMK AO2 T00890072

More Conditions Fewer Conditions

Pressure 30.16 in
Visibility 10.0 miles
Clouds Overcast 3100 ft
Windchill 45 °F
Dew Point 45 °F
Humidity 98%
Rainfall 0.03 in
Snow Depth Not available.
UV 0 out of 12
Pollen .90 out of 12
Air Quality Not available.
Flu Activity Regional
SPECI KBML 030506Z AUTO 00000KT 10SM OVC031 09/07 A3016 RMK AO2 T00890072

More Conditions Fewer Conditions

10-Day Weather Forecast

×

Almanac

Astronomy

Jun. 03, 2015 Rise Set
Actual Time
Civil Twilight
Nautical Twilight
Astronomical Twilight
Moon
Length of Visible Light
Length of Day
Tomorrow will be .
, % of the Moon is Illuminated

Today's Extremes

State Highs State Lows

Community

WunderPhotos

Upload Photos

1,826,177 photos uploaded!

WunderBlogs® & News

Nearby

Air Quality

  Air Quality AQ Index Pollutant
Not available.

Snow Depth

Station Depth Elevation

Earthquake Activity

City Distance Mag. Time & Date
Minimum magnitude displayed is 2.5.

Coastal Water Temperatures

Place Temperature

Stations

Nearby Weather Stations

Station Location Temp. Windchill Dew Point Humidity Wind Precip. Elev Updated Type